Time;durP1;ratioP1;P1;durP2;ratioP2;P2;SDS_P1;SDS_P2;PMS_P1;PMS_P2;Temp;Humidity;BMP_temperature;BMP_pressure;BME280_temperature;BME280_humidity;BME280_pressure;Samples;Min_cycle;Max_cycle;Signal;HPM_P1;HPM_P2
2022/05/10 00:01:55;;;;;;;5.85;5.47;;;;;;;14.16;96.71;101582.84;6101354;23;20025;-72
2022/05/10 00:04:22;;;;;;;5.55;5.25;;;;;;;14.20;97.01;101576.47;6113947;23;20008;-74
2022/05/10 00:06:50;;;;;;;5.63;5.32;;;;;;;14.20;97.05;101578.25;6105476;23;20376;-73
2022/05/10 00:09:20;;;;;;;6.18;5.85;;;;;;;13.75;96.98;101499.66;6109761;23;20009;-74
2022/05/10 00:11:48;;;;;;;5.50;5.20;;;;;;;14.14;96.85;101555.66;6102786;23;20017;-74
2022/05/10 00:14:15;;;;;;;6.95;6.65;;;;;;;14.25;97.05;101571.78;6111126;23;20029;-74
2022/05/10 00:16:44;;;;;;;5.78;5.47;;;;;;;14.26;96.91;101570.00;6112233;23;20057;-72
2022/05/10 00:19:13;;;;;;;7.07;6.70;;;;;;;14.27;96.65;101571.69;6106228;23;20029;-74
2022/05/10 00:21:40;;;;;;;5.50;5.20;;;;;;;14.26;96.35;101580.56;6093144;23;20021;-73
2022/05/10 00:24:07;;;;;;;7.22;6.82;;;;;;;13.46;95.91;101445.78;6067213;23;20017;-74
2022/05/10 00:26:34;;;;;;;5.05;4.75;;;;;;;14.19;95.87;101574.72;6086472;23;20029;-71
2022/05/10 00:29:01;;;;;;;5.97;5.63;;;;;;;13.66;95.78;101484.28;6070117;23;20041;-72
2022/05/10 00:31:29;;;;;;;8.75;5.47;;;;;;;14.10;95.63;101547.06;6117778;23;20042;-74
2022/05/10 00:33:58;;;;;;;5.32;5.07;;;;;;;14.18;95.88;101559.84;6101161;23;20073;-71
2022/05/10 00:36:24;;;;;;;4.95;4.75;;;;;;;14.15;96.07;101566.16;6100477;23;20088;-74
2022/05/10 00:38:51;;;;;;;6.13;5.72;;;;;;;14.12;95.44;101563.66;6107532;23;20438;-71
2022/05/10 00:41:26;;;;;;;5.57;5.30;;;;;;;14.09;95.76;101565.59;6121865;23;20017;-74
2022/05/10 00:44:02;;;;;;;5.93;5.55;;;;;;;13.98;95.47;101544.22;6109588;23;20660;-74
2022/05/10 00:46:34;;;;;;;5.22;5.03;;;;;;;13.73;94.99;101506.78;6113644;23;20013;-74
2022/05/10 00:49:15;;;;;;;7.75;7.15;;;;;;;13.58;94.85;101491.75;6098607;23;20447;-74
2022/05/10 00:52:17;;;;;;;5.80;5.50;;;;;;;14.01;95.13;101563.41;6111635;23;20509;-75
2022/05/10 00:55:07;;;;;;;5.50;5.20;;;;;;;12.91;94.82;101388.84;6116059;23;20009;-71
2022/05/10 00:57:39;;;;;;;5.72;5.43;;;;;;;11.43;95.09;101168.13;6090881;23;20415;-72
2022/05/10 01:00:22;;;;;;;5.40;5.13;;;;;;;13.45;96.03;101491.56;6117785;23;20702;-73
2022/05/10 01:03:00;;;;;;;5.50;5.20;;;;;;;13.85;96.68;101559.81;6112202;23;20900;-74
2022/05/10 01:05:32;;;;;;;4.75;4.55;;;;;;;13.82;96.61;101552.94;6105097;23;20016;-74
2022/05/10 01:08:08;;;;;;;6.20;5.80;;;;;;;13.80;96.15;101551.31;6119566;23;20025;-74
2022/05/10 01:10:42;;;;;;;5.20;4.97;;;;;;;13.37;96.91;101483.19;6111153;23;20033;-74
2022/05/10 01:13:32;;;;;;;5.40;5.10;;;;;;;13.75;96.86;101551.53;6105530;23;20018;-74
2022/05/10 01:16:05;;;;;;;4.90;4.70;;;;;;;13.16;96.70;101462.22;6102254;23;20020;-72
2022/05/10 01:18:31;;;;;;;5.38;5.07;;;;;;;13.34;96.62;101491.25;6103552;23;20037;-73
2022/05/10 01:21:11;;;;;;;5.18;4.97;;;;;;;13.49;97.04;101519.47;6124639;23;20767;-72
2022/05/10 01:24:09;;;;;;;4.95;4.75;;;;;;;13.21;97.32;101482.22;6106129;23;20016;-71
2022/05/10 01:26:49;;;;;;;5.72;5.43;;;;;;;13.54;97.70;101537.69;6105479;23;20022;-74
2022/05/10 01:29:26;;;;;;;5.30;5.00;;;;;;;13.52;98.21;101539.53;6103516;23;20017;-71
2022/05/10 01:34:46;;;;;;;5.05;4.85;;;;;;;13.48;98.15;101538.00;6113545;23;20391;-74
2022/05/10 01:37:17;;;;;;;7.07;6.78;;;;;;;12.42;100.00;101404.44;6102659;23;20482;-73
2022/05/10 01:40:09;;;;;;;5.38;5.07;;;;;;;13.04;100.00;101510.25;6095170;23;20028;-74
2022/05/10 01:42:51;;;;;;;5.68;5.38;;;;;;;13.21;100.00;101537.56;6106246;23;20032;-74
2022/05/10 01:45:30;;;;;;;5.03;4.82;;;;;;;13.20;100.00;101543.78;6106422;23;20497;-74
2022/05/10 01:48:01;;;;;;;5.00;4.78;;;;;;;12.47;100.00;101420.88;6093035;23;20010;-73
2022/05/10 01:50:49;;;;;;;5.10;4.90;;;;;;;13.18;100.00;101531.50;6105286;23;20013;-73
2022/05/10 01:53:26;;;;;;;5.65;5.35;;;;;;;12.54;100.00;101427.53;6105596;23;20020;-73
2022/05/10 01:55:58;;;;;;;5.55;5.25;;;;;;;13.04;100.00;101515.53;6105400;23;20021;-72
2022/05/10 01:58:28;;;;;;;5.40;5.15;;;;;;;13.11;100.00;101534.53;6110748;23;20529;-74
2022/05/10 02:01:07;;;;;;;5.55;5.25;;;;;;;12.62;100.00;101458.75;6116416;23;20052;-74
2022/05/10 02:03:37;;;;;;;4.97;4.78;;;;;;;13.08;100.00;101530.25;6103706;23;20074;-74
2022/05/10 02:06:09;;;;;;;6.95;6.65;;;;;;;13.04;100.00;101523.44;6107381;23;20537;-75
2022/05/10 02:08:55;;;;;;;;;;;;;;;12.97;100.00;101524.69;6109375;23;20368;-74
2022/05/10 02:11:24;;;;;;;7.18;6.53;;;;;;;12.82;100.00;101523.63;6088742;23;20329;-74
2022/05/10 02:14:01;;;;;;;5.00;4.80;;;;;;;12.73;100.00;101517.03;6093862;23;20025;-74
2022/05/10 02:17:12;;;;;;;5.00;4.80;;;;;;;12.74;100.00;101529.25;6118674;23;20060;-74
2022/05/10 02:20:22;;;;;;;4.70;4.50;;;;;;;12.18;100.00;101444.16;5971916;23;20023;-73
2022/05/10 02:23:15;;;;;;;5.38;5.07;;;;;;;12.70;100.00;101525.06;5882746;24;20076;-73
2022/05/10 02:25:57;;;;;;;4.93;4.72;;;;;;;12.59;100.00;101530.00;5967659;23;20035;-75
2022/05/10 02:28:26;;;;;;;4.90;4.70;;;;;;;12.53;100.00;101530.31;6081149;23;20040;-71
2022/05/10 02:30:58;;;;;;;5.30;5.00;;;;;;;11.22;100.00;101340.75;6089620;23;20044;-73
2022/05/10 02:33:27;;;;;;;4.80;4.50;;;;;;;12.37;100.00;101502.06;6103336;23;20017;-74
2022/05/10 02:35:57;;;;;;;5.45;5.15;;;;;;;12.08;100.00;101457.81;6096364;23;20030;-73
2022/05/10 02:38:34;;;;;;;4.97;4.78;;;;;;;12.47;100.00;101520.91;6085555;23;20014;-73
2022/05/10 02:41:04;;;;;;;6.13;5.82;;;;;;;12.47;100.00;101514.78;6100323;23;20032;-74
2022/05/10 02:43:36;;;;;;;4.60;4.40;;;;;;;12.47;100.00;101515.66;6090193;23;20034;-74
2022/05/10 02:46:02;;;;;;;6.57;6.28;;;;;;;12.49;100.00;101512.94;6104342;23;20032;-74
2022/05/10 02:48:38;;;;;;;4.93;4.72;;;;;;;11.94;100.00;101422.47;6112466;23;20066;-75
2022/05/10 02:51:06;;;;;;;6.40;6.10;;;;;;;12.46;100.00;101499.91;6075573;23;20109;-75
2022/05/10 02:53:32;;;;;;;4.68;4.47;;;;;;;12.32;100.00;101479.50;6113657;23;20023;-74
2022/05/10 02:56:05;;;;;;;5.25;5.00;;;;;;;12.57;100.00;101508.16;6087638;23;20037;-73
2022/05/10 02:58:43;;;;;;;4.90;4.70;;;;;;;12.22;100.00;101442.22;6101629;23;20025;-74
2022/05/10 03:01:22;;;;;;;6.85;6.45;;;;;;;12.27;100.00;101442.88;6093078;23;20451;-74
2022/05/10 03:03:50;;;;;;;5.00;4.80;;;;;;;12.33;100.00;101457.53;6105202;23;20014;-74
2022/05/10 03:06:19;;;;;;;5.07;4.88;;;;;;;12.51;100.00;101475.09;6089904;23;20014;-74
2022/05/10 03:08:47;;;;;;;4.90;4.70;;;;;;;12.68;100.00;101491.84;6117000;23;20592;-74
2022/05/10 03:11:14;;;;;;;6.13;5.82;;;;;;;12.47;100.00;101460.34;6098750;23;20030;-72
2022/05/10 03:13:42;;;;;;;5.00;4.70;;;;;;;12.71;100.00;101489.91;6103450;23;20017;-74
2022/05/10 03:16:08;;;;;;;5.55;5.35;;;;;;;12.61;100.00;101461.47;6089690;23;20049;-75
2022/05/10 03:18:35;;;;;;;4.68;4.47;;;;;;;12.53;100.00;101448.69;6108902;23;20013;-73
2022/05/10 03:21:02;;;;;;;23.00;21.70;;;;;;;12.85;100.00;101483.09;6041069;23;20229;-73
2022/05/10 03:23:29;;;;;;;5.00;4.80;;;;;;;12.84;100.00;101479.63;6006319;23;20391;-75
2022/05/10 03:25:56;;;;;;;4.85;4.63;;;;;;;11.55;100.00;101277.91;6104886;23;20045;-73
2022/05/10 03:28:24;;;;;;;4.93;4.72;;;;;;;12.86;100.00;101479.56;6105240;23;20206;-75
2022/05/10 03:30:51;;;;;;;5.70;5.40;;;;;;;12.27;100.00;101378.88;6095050;23;20379;-74
2022/05/10 03:33:18;;;;;;;5.97;5.68;;;;;;;12.31;100.00;101372.53;6105467;23;20072;-73
2022/05/10 03:35:44;;;;;;;5.60;5.30;;;;;;;12.76;100.00;101456.28;6070305;23;20447;-75
2022/05/10 03:38:11;;;;;;;6.47;6.18;;;;;;;12.88;100.00;101460.09;6105598;23;20529;-76
2022/05/10 03:40:38;;;;;;;4.90;4.70;;;;;;;12.87;99.48;101468.97;6098145;23;20016;-72
2022/05/10 03:43:08;;;;;;;6.72;6.43;;;;;;;12.86;99.63;101466.38;6093064;23;20021;-72
2022/05/10 03:45:35;;;;;;;4.90;4.60;;;;;;;12.82;99.56;101468.31;6104326;23;20477;-74
2022/05/10 03:48:01;;;;;;;6.25;5.95;;;;;;;12.47;100.00;101410.34;6114142;23;20021;-75
2022/05/10 03:50:28;;;;;;;5.22;4.93;;;;;;;12.55;100.00;101429.25;6091064;23;20553;-74
2022/05/10 03:52:55;;;;;;;4.80;4.60;;;;;;;12.67;100.00;101442.72;6113523;23;20028;-74
2022/05/10 03:55:24;;;;;;;5.15;4.95;;;;;;;12.77;100.00;101468.56;6104446;23;20081;-72
2022/05/10 03:57:52;;;;;;;5.75;5.43;;;;;;;12.78;99.91;101464.13;6109802;23;20493;-73
2022/05/10 04:00:23;;;;;;;4.68;4.47;;;;;;;12.79;99.85;101465.84;6108678;23;20065;-75
2022/05/10 04:02:50;;;;;;;5.22;4.93;;;;;;;12.31;99.30;101389.16;6113592;23;20431;-74
2022/05/10 04:05:18;;;;;;;4.80;4.60;;;;;;;12.73;99.19;101450.34;6103666;23;20058;-73
2022/05/10 04:07:44;;;;;;;5.00;4.80;;;;;;;12.80;99.00;101459.63;6100570;23;20049;-74
2022/05/10 04:10:13;;;;;;;6.72;6.43;;;;;;;12.46;98.90;101400.72;6111234;23;20038;-74
2022/05/10 04:12:41;;;;;;;5.25;4.90;;;;;;;12.83;98.65;101464.78;6112613;23;20032;-73
2022/05/10 04:15:10;;;;;;;7.20;6.78;;;;;;;12.87;98.65;101458.41;6106773;23;20592;-72
2022/05/10 04:17:37;;;;;;;5.78;5.28;;;;;;;12.89;98.63;101466.22;6121491;23;20009;-74
2022/05/10 04:20:06;;;;;;;6.32;6.03;;;;;;;12.88;98.24;101460.09;6095656;23;20650;-74
2022/05/10 04:22:33;;;;;;;5.35;5.05;;;;;;;12.87;98.05;101461.06;6116459;23;20017;-74
2022/05/10 04:25:13;;;;;;;6.63;6.32;;;;;;;12.90;97.84;101458.25;6096038;23;20021;-74
2022/05/10 04:27:40;;;;;;;4.80;4.60;;;;;;;12.96;97.13;101465.84;6111054;23;20084;-74
2022/05/10 04:30:07;;;;;;;6.13;5.82;;;;;;;12.58;95.69;101388.75;6103949;23;20100;-72
2022/05/10 04:32:36;;;;;;;5.13;4.93;;;;;;;12.72;95.18;101396.81;6108079;23;20041;-74
2022/05/10 04:35:03;;;;;;;6.82;6.53;;;;;;;12.62;95.79;101392.06;6110147;23;20026;-75
2022/05/10 04:37:30;;;;;;;5.07;4.85;;;;;;;13.01;95.89;101454.22;6115648;23;20035;-74
2022/05/10 04:42:45;;;;;;;5.43;5.13;;;;;;;12.96;95.79;101449.19;6116967;23;20029;-72
2022/05/10 04:45:13;;;;;;;6.40;6.10;;;;;;;13.13;95.58;101466.81;6103899;23;20026;-71
2022/05/10 04:47:40;;;;;;;5.68;5.38;;;;;;;13.20;95.62;101470.81;6113599;23;20691;-74
2022/05/10 04:50:07;;;;;;;6.13;5.82;;;;;;;12.84;94.76;101405.88;6107646;23;20114;-73
2022/05/10 04:52:34;;;;;;;4.40;4.20;;;;;;;13.27;94.95;101466.06;6106290;23;20017;-73
2022/05/10 04:55:01;;;;;;;5.80;5.50;;;;;;;12.94;93.85;101408.91;6097253;23;20044;-71
2022/05/10 04:57:28;;;;;;;5.28;5.03;;;;;;;13.14;93.91;101434.22;6108535;23;20029;-73
2022/05/10 04:59:55;;;;;;;5.85;5.45;;;;;;;13.45;92.94;101470.47;6109411;23;20176;-74
2022/05/10 05:02:21;;;;;;;5.15;4.95;;;;;;;13.54;92.21;101464.69;6105144;23;20032;-73
2022/05/10 05:04:48;;;;;;;5.35;5.10;;;;;;;13.28;92.03;101421.19;6103922;23;20048;-74
2022/05/10 05:07:14;;;;;;;6.05;5.75;;;;;;;13.18;91.76;101390.97;6083735;23;20017;-74
2022/05/10 05:09:41;;;;;;;4.88;4.68;;;;;;;13.74;91.03;101471.53;6107876;23;20568;-75
2022/05/10 05:12:08;;;;;;;6.60;6.30;;;;;;;13.85;90.07;101468.34;6109824;23;20049;-74
2022/05/10 05:14:34;;;;;;;5.28;5.03;;;;;;;13.74;90.01;101470.72;6095433;23;20014;-73
2022/05/10 05:17:01;;;;;;;6.40;6.10;;;;;;;14.03;90.47;101481.47;6119864;23;20524;-73
2022/05/10 05:19:27;;;;;;;4.68;4.47;;;;;;;13.89;88.91;101427.69;6118180;23;20442;-73
2022/05/10 05:21:54;;;;;;;4.78;4.57;;;;;;;14.28;88.46;101481.84;6111187;23;20039;-73
2022/05/10 05:24:26;;;;;;;4.95;4.70;;;;;;;14.46;87.53;101473.84;6090629;23;20036;-74
2022/05/10 05:26:53;;;;;;;5.45;5.18;;;;;;;14.27;86.70;101423.84;6109511;23;20089;-71
2022/05/10 05:29:19;;;;;;;5.10;4.90;;;;;;;14.81;85.34;101482.41;6088348;23;20020;-72
2022/05/10 05:31:48;;;;;;;5.50;5.30;;;;;;;14.50;83.87;101422.56;6103516;23;20041;-74
2022/05/10 05:34:14;;;;;;;7.47;6.97;;;;;;;14.73;82.36;101453.81;6103138;23;20021;-73
2022/05/10 05:36:41;;;;;;;5.05;4.85;;;;;;;15.02;81.73;101484.78;6112651;23;20057;-74
2022/05/10 05:39:07;;;;;;;7.15;6.85;;;;;;;15.04;82.65;101481.09;6098736;23;20452;-74
2022/05/10 05:41:34;;;;;;;5.68;5.38;;;;;;;15.10;81.86;101470.16;6115487;23;20108;-72
2022/05/10 05:44:00;;;;;;;6.40;6.10;;;;;;;14.93;81.34;101434.16;6095808;23;20029;-73
2022/05/10 05:46:26;;;;;;;5.60;5.30;;;;;;;14.87;81.43;101416.00;6109871;23;20021;-75
2022/05/10 05:48:53;;;;;;;5.55;5.25;;;;;;;14.75;80.82;101400.88;6077514;23;20014;-73
2022/05/10 05:51:19;;;;;;;5.70;5.40;;;;;;;15.39;81.54;101479.94;6081102;23;20021;-72
2022/05/10 05:53:46;;;;;;;5.57;5.28;;;;;;;15.49;80.38;101470.50;6098197;23;20009;-72
2022/05/10 05:56:13;;;;;;;6.82;6.43;;;;;;;15.41;79.97;101431.28;6106177;23;20104;-73
2022/05/10 05:58:39;;;;;;;7.03;6.45;;;;;;;15.91;78.91;101469.69;6081839;23;20474;-72
2022/05/10 06:01:11;;;;;;;6.20;5.90;;;;;;;16.08;78.27;101473.94;6100825;23;20466;-73
2022/05/10 06:03:38;;;;;;;5.60;5.30;;;;;;;16.35;77.45;101446.66;6112219;23;20096;-71
2022/05/10 06:06:04;;;;;;;7.35;6.95;;;;;;;16.46;76.82;101472.47;6110716;23;20092;-72
2022/05/10 06:08:30;;;;;;;5.95;5.65;;;;;;;16.63;76.09;101471.34;6076585;23;20111;-73
2022/05/10 06:10:57;;;;;;;5.93;5.45;;;;;;;16.55;75.52;101442.72;6108904;23;20438;-73
2022/05/10 06:13:24;;;;;;;5.97;5.57;;;;;;;16.76;75.06;101474.91;6094171;23;20021;-74
2022/05/10 06:15:50;;;;;;;5.60;5.32;;;;;;;16.71;74.39;101455.81;6106155;23;20196;-72
2022/05/10 06:18:17;;;;;;;5.40;5.20;;;;;;;16.32;74.03;101378.84;6083281;23;20404;-73
2022/05/10 06:20:43;;;;;;;5.78;5.38;;;;;;;16.77;75.16;101475.75;6116214;23;20088;-73
2022/05/10 06:23:10;;;;;;;7.45;6.95;;;;;;;16.43;74.66;101375.47;6088408;23;20595;-73
2022/05/10 06:25:37;;;;;;;5.80;5.50;;;;;;;16.95;73.69;101470.09;6116853;23;20497;-72
2022/05/10 06:28:04;;;;;;;7.20;6.80;;;;;;;17.05;73.54;101466.84;6074478;23;20234;-73
2022/05/10 06:30:32;;;;;;;5.72;5.35;;;;;;;17.12;72.57;101463.69;6106695;23;20149;-75
2022/05/10 06:32:59;;;;;;;5.90;5.60;;;;;;;17.21;72.28;101469.31;6093634;23;20013;-72
2022/05/10 06:35:27;;;;;;;5.78;5.47;;;;;;;17.06;72.98;101431.41;6103156;23;20179;-73
2022/05/10 06:40:40;;;;;;;6.28;5.88;;;;;;;16.98;73.75;101436.38;6112882;23;20355;-73
2022/05/10 06:43:06;;;;;;;7.20;6.72;;;;;;;17.33;73.60;101452.56;6104137;23;20265;-73
2022/05/10 06:45:33;;;;;;;6.50;6.10;;;;;;;17.44;73.05;101451.81;6110322;23;20024;-74
2022/05/10 06:47:59;;;;;;;6.68;6.30;;;;;;;17.00;71.74;101373.47;6089909;23;20033;-71
2022/05/10 06:50:26;;;;;;;6.60;6.10;;;;;;;17.86;71.06;101442.69;6098265;23;20041;-74
2022/05/10 06:52:57;;;;;;;5.90;5.60;;;;;;;17.60;70.75;101356.03;6088090;23;20092;-72
2022/05/10 06:55:26;;;;;;;5.90;5.60;;;;;;;18.35;68.86;101435.63;6098195;23;20100;-73
2022/05/10 06:57:52;;;;;;;5.93;5.63;;;;;;;18.41;67.62;101413.91;6093074;23;20048;-73
2022/05/10 07:00:20;;;;;;;6.35;5.95;;;;;;;18.66;65.38;101439.53;6096834;23;20026;-72
2022/05/10 07:02:47;;;;;;;5.75;5.43;;;;;;;18.45;66.16;101395.94;6083315;23;20010;-72
2022/05/10 07:05:15;;;;;;;7.68;7.25;;;;;;;19.00;65.36;101441.50;6113571;23;20028;-72
2022/05/10 07:07:42;;;;;;;6.15;5.75;;;;;;;18.62;65.19;101363.63;6101782;23;20025;-73
2022/05/10 07:10:10;;;;;;;7.20;6.80;;;;;;;19.34;63.73;101445.06;6100755;23;20089;-72
2022/05/10 07:12:38;;;;;;;6.75;6.20;;;;;;;19.45;63.04;101418.47;6090854;23;20236;-73
2022/05/10 07:15:07;;;;;;;7.32;6.93;;;;;;;19.69;63.11;101407.69;6088643;23;20026;-74
2022/05/10 07:17:35;;;;;;;5.93;5.63;;;;;;;19.86;62.60;101435.66;6091603;23;20075;-73
2022/05/10 07:20:03;;;;;;;6.82;6.50;;;;;;;19.52;60.24;101362.91;6114164;23;20091;-73
2022/05/10 07:22:29;;;;;;;6.32;5.97;;;;;;;20.13;60.98;101429.13;6094731;23;20030;-73
2022/05/10 07:24:56;;;;;;;6.40;6.07;;;;;;;20.32;60.75;101407.13;6099196;23;20345;-73
2022/05/10 07:27:22;;;;;;;6.78;6.38;;;;;;;20.68;60.01;101432.59;6108307;23;20029;-72
2022/05/10 07:29:48;;;;;;;6.53;6.00;;;;;;;21.07;58.41;101424.88;6089669;23;20241;-74
2022/05/10 07:32:15;;;;;;;7.28;6.88;;;;;;;20.98;57.34;101348.28;6108883;23;20240;-71
2022/05/10 07:34:42;;;;;;;7.10;6.57;;;;;;;21.81;56.70;101425.69;6101774;23;20025;-73
2022/05/10 07:37:08;;;;;;;6.43;6.03;;;;;;;21.48;53.84;101356.41;6102120;23;20040;-72
2022/05/10 07:39:35;;;;;;;6.72;6.32;;;;;;;22.10;54.07;101420.44;6088683;23;20024;-71
2022/05/10 07:42:04;;;;;;;6.43;6.13;;;;;;;22.05;54.19;101419.97;6113656;23;20013;-71
2022/05/10 07:44:31;;;;;;;6.00;5.70;;;;;;;22.01;54.05;101418.56;6085908;23;20115;-72
2022/05/10 07:46:58;;;;;;;7.28;6.88;;;;;;;22.00;55.09;101416.88;6112543;23;20040;-73
2022/05/10 07:49:25;;;;;;;10.23;6.35;;;;;;;22.07;54.25;101431.38;6109099;23;20009;-74
2022/05/10 07:51:52;;;;;;;6.30;6.00;;;;;;;22.04;54.69;101420.97;6106051;23;20022;-73
2022/05/10 07:54:19;;;;;;;6.43;5.97;;;;;;;20.88;55.28;101216.63;6090965;23;20033;-73
2022/05/10 07:56:45;;;;;;;9.82;6.38;;;;;;;21.61;54.80;101350.84;6082855;23;20127;-73
2022/05/10 07:59:12;;;;;;;7.97;7.57;;;;;;;22.00;54.64;101422.22;6090527;23;20102;-73
2022/05/10 08:01:39;;;;;;;6.85;6.45;;;;;;;21.97;56.12;101406.47;6115821;23;20029;-73
2022/05/10 08:04:05;;;;;;;8.38;7.78;;;;;;;22.10;54.03;101413.25;6080615;23;20365;-74
2022/05/10 08:06:32;;;;;;;6.18;5.78;;;;;;;22.17;54.20;101407.34;6115586;23;20009;-74
2022/05/10 08:08:58;;;;;;;7.47;6.90;;;;;;;22.37;53.86;101410.91;6109151;23;20021;-74
2022/05/10 08:11:24;;;;;;;6.72;6.32;;;;;;;22.14;53.79;101357.69;6115508;23;20018;-73
2022/05/10 08:13:51;;;;;;;7.22;6.55;;;;;;;22.06;53.93;101355.69;6071112;23;20271;-74
2022/05/10 08:16:17;;;;;;;7.20;6.80;;;;;;;22.49;54.01;101407.97;6090531;23;20268;-74
2022/05/10 08:18:48;;;;;;;6.00;5.70;;;;;;;22.47;54.44;101391.22;6074756;23;20018;-72
2022/05/10 08:21:15;;;;;;;8.10;7.70;;;;;;;22.60;53.97;101390.09;6129024;23;20039;-73
2022/05/10 08:23:42;;;;;;;5.88;5.57;;;;;;;22.24;53.65;101309.59;6095186;23;20185;-74
2022/05/10 08:26:08;;;;;;;8.07;7.47;;;;;;;22.63;53.35;101326.44;6114089;23;20025;-72
2022/05/10 08:28:36;;;;;;;6.68;6.28;;;;;;;22.64;52.50;101321.94;6106050;23;20086;-72
2022/05/10 08:31:05;;;;;;;8.45;7.97;;;;;;;23.35;51.68;101399.13;6100001;23;20120;-74
2022/05/10 08:33:35;;;;;;;6.65;6.28;;;;;;;23.57;50.61;101395.22;6083336;23;20605;-72
2022/05/10 08:36:02;;;;;;;7.13;6.72;;;;;;;23.28;49.65;101329.22;6101279;23;20029;-74
2022/05/10 08:38:30;;;;;;;6.68;6.28;;;;;;;23.66;49.16;101369.38;6099874;23;20014;-72
2022/05/10 08:41:02;;;;;;;6.13;5.82;;;;;;;23.79;49.60;101385.97;6107576;23;20025;-72
2022/05/10 08:43:32;;;;;;;;;;;;;;;24.02;48.45;101378.38;6104672;23;20013;-74
2022/05/10 08:45:59;;;;;;;6.57;6.28;;;;;;;23.90;48.22;101323.28;6108960;23;19912;-72
2022/05/10 08:48:29;;;;;;;6.30;6.00;;;;;;;24.09;48.30;101303.50;6100106;23;20489;-73
2022/05/10 08:50:57;;;;;;;6.43;6.13;;;;;;;23.93;46.78;101199.63;6120840;23;20654;-71
2022/05/10 08:53:24;;;;;;;6.25;5.93;;;;;;;25.22;45.80;101368.16;6111857;23;20016;-74
2022/05/10 08:55:56;;;;;;;5.78;5.47;;;;;;;25.59;44.16;101364.28;6106353;23;20096;-72
2022/05/10 08:58:47;;;;;;;6.57;6.18;;;;;;;26.00;43.80;101388.63;6100844;23;20079;-74
2022/05/10 09:01:42;;;;;;;7.20;6.80;;;;;;;26.36;41.09;101350.66;6104658;23;20517;-74
2022/05/10 09:04:38;;;;;;;8.07;7.53;;;;;;;26.38;40.49;101297.50;6092491;23;20026;-74
2022/05/10 09:07:38;;;;;;;7.00;6.70;;;;;;;27.22;39.59;101363.53;6100804;23;20646;-73
2022/05/10 09:10:04;;;;;;;7.65;7.25;;;;;;;27.48;39.18;101356.22;6099413;23;20170;-74
2022/05/10 09:12:41;;;;;;;7.13;6.53;;;;;;;27.41;38.81;101348.84;6103109;23;20184;-75
2022/05/10 09:15:10;;;;;;;7.50;7.15;;;;;;;27.25;39.11;101354.31;6084647;23;20165;-74
2022/05/10 09:17:36;;;;;;;6.45;6.05;;;;;;;26.89;38.98;101264.97;6106694;23;20025;-73
2022/05/10 09:20:08;;;;;;;7.50;7.10;;;;;;;27.20;38.81;101297.34;6094879;23;20088;-74
2022/05/10 09:23:24;;;;;;;6.60;6.20;;;;;;;27.45;38.77;101343.94;6105117;23;20400;-74
2022/05/10 09:25:56;;;;;;;6.40;6.07;;;;;;;27.00;36.91;101340.00;6032905;23;20054;-75
2022/05/10 09:28:26;;;;;;;6.03;5.72;;;;;;;26.81;37.36;101288.22;6101525;23;20117;-74
2022/05/10 09:36:27;;;;;;;5.95;5.63;;;;;;;27.48;35.58;101319.31;6076958;23;20779;-74
2022/05/10 09:39:13;;;;;;;6.00;5.60;;;;;;;26.76;35.62;101273.59;6095527;23;20025;-74
2022/05/10 09:41:42;;;;;;;6.47;6.13;;;;;;;27.13;36.45;101320.63;6095504;23;20302;-73
2022/05/10 09:44:21;;;;;;;8.07;7.47;;;;;;;26.65;36.64;101255.94;6101170;23;20021;-74
2022/05/10 09:46:48;;;;;;;6.40;6.10;;;;;;;26.67;35.19;101324.75;6109267;23;20040;-73
2022/05/10 09:49:37;;;;;;;8.30;7.90;;;;;;;26.59;36.05;101319.41;6100885;23;20033;-73
2022/05/10 09:52:05;;;;;;;7.72;7.15;;;;;;;26.13;34.61;101257.16;6088197;23;20024;-76
2022/05/10 09:54:40;;;;;;;5.90;5.60;;;;;;;26.79;35.49;101317.16;6107158;23;20100;-73
2022/05/10 09:57:10;;;;;;;6.82;6.47;;;;;;;27.26;34.83;101323.63;6088856;23;20051;-73
2022/05/10 09:59:45;;;;;;;6.20;5.90;;;;;;;27.44;34.77;101305.38;6088699;23;20013;-72
2022/05/10 10:02:29;;;;;;;7.40;7.00;;;;;;;26.97;33.37;101241.53;6107817;23;20018;-73
2022/05/10 10:04:56;;;;;;;6.30;6.00;;;;;;;26.24;33.87;101261.34;6121454;23;20029;-73
2022/05/10 10:07:26;;;;;;;6.30;5.90;;;;;;;27.10;34.87;101312.88;6079644;23;20016;-75
2022/05/10 10:10:14;;;;;;;6.43;6.10;;;;;;;27.35;31.77;101287.53;6105313;23;20041;-75
2022/05/10 10:12:43;;;;;;;5.95;5.65;;;;;;;27.52;31.44;101242.44;6093190;23;20021;-73
2022/05/10 10:15:32;;;;;;;7.28;6.88;;;;;;;27.44;30.62;101302.69;6110249;23;20100;-73
2022/05/10 10:18:04;;;;;;;6.03;5.72;;;;;;;27.64;30.49;101302.22;6073555;23;20598;-72
2022/05/10 10:20:37;;;;;;;6.18;5.88;;;;;;;27.69;30.19;101288.22;6098221;23;20415;-73
2022/05/10 10:23:29;;;;;;;6.75;6.35;;;;;;;28.22;31.08;101303.50;6080850;23;20037;-73
2022/05/10 10:26:03;;;;;;;6.32;6.03;;;;;;;28.03;31.06;101304.03;6101149;23;20030;-74
2022/05/10 10:28:48;;;;;;;6.30;5.90;;;;;;;27.45;30.54;101296.25;6101126;23;20055;-74
2022/05/10 10:31:26;;;;;;;7.38;6.97;;;;;;;27.21;29.78;101280.19;6101100;23;20262;-74
2022/05/10 10:34:03;;;;;;;6.10;5.80;;;;;;;26.87;31.31;101262.44;6079063;23;20034;-73
2022/05/10 10:36:36;;;;;;;6.10;5.80;;;;;;;27.21;31.20;101296.34;6113818;23;20018;-75
2022/05/10 10:39:12;;;;;;;7.15;6.78;;;;;;;26.76;32.31;101252.91;6099054;23;20025;-73
2022/05/10 10:42:07;;;;;;;6.00;5.70;;;;;;;26.92;32.66;101286.16;6103159;23;20494;-73
2022/05/10 10:44:37;;;;;;;5.72;5.43;;;;;;;27.48;32.23;101281.56;6098555;23;20146;-74
2022/05/10 10:47:26;;;;;;;6.97;6.68;;;;;;;28.12;30.65;101291.28;6115097;23;20029;-72
2022/05/10 10:50:29;;;;;;;6.30;6.00;;;;;;;27.87;29.76;101282.53;6107950;23;20340;-73
2022/05/10 10:52:58;;;;;;;5.95;5.65;;;;;;;28.07;29.73;101291.00;6102675;23;20284;-72
2022/05/10 10:55:44;;;;;;;6.00;5.70;;;;;;;27.08;30.39;101218.75;6093158;23;20099;-73
2022/05/10 10:58:44;;;;;;;6.85;6.55;;;;;;;26.55;31.83;101239.13;6108618;23;20025;-73
2022/05/10 11:01:33;;;;;;;7.18;6.80;;;;;;;26.88;31.74;101264.13;6097207;23;20056;-74
2022/05/10 11:04:13;;;;;;;6.45;6.15;;;;;;;27.21;31.64;101272.09;6110831;23;20032;-75
2022/05/10 11:06:53;;;;;;;6.22;5.93;;;;;;;27.35;30.65;101276.75;6103750;23;20018;-73
2022/05/10 11:09:40;;;;;;;6.03;5.72;;;;;;;26.56;30.78;101221.94;6098773;23;20032;-73
2022/05/10 11:12:16;;;;;;;7.43;7.03;;;;;;;26.15;31.63;101195.97;6095625;23;20084;-72
2022/05/10 11:15:05;;;;;;;6.32;6.03;;;;;;;25.70;31.21;101210.75;6081150;23;20463;-75
2022/05/10 11:17:51;;;;;;;5.50;5.30;;;;;;;26.27;32.42;101261.03;6110127;23;20330;-73
2022/05/10 11:20:35;;;;;;;6.22;5.93;;;;;;;26.29;31.47;101162.13;6101667;23;20462;-73
2022/05/10 11:23:07;;;;;;;7.20;6.80;;;;;;;25.74;32.02;101068.75;6111163;23;20067;-72
2022/05/10 11:25:49;;;;;;;6.30;6.00;;;;;;;26.42;32.19;101243.19;6114149;23;20077;-74
2022/05/10 11:28:44;;;;;;;5.90;5.60;;;;;;;26.91;31.24;101244.94;6104443;23;20028;-73
2022/05/10 11:31:21;;;;;;;7.03;6.63;;;;;;;26.35;31.96;101206.38;6111808;23;20356;-73
2022/05/10 11:34:27;;;;;;;6.10;5.80;;;;;;;26.59;32.14;101245.88;6080447;23;20067;-75
2022/05/10 11:36:59;;;;;;;6.30;5.93;;;;;;;26.35;31.79;101174.91;6106152;23;20200;-75
2022/05/10 11:39:46;;;;;;;6.28;5.97;;;;;;;26.04;31.84;101244.72;6109061;23;20018;-72
2022/05/10 11:42:23;;;;;;;5.82;5.53;;;;;;;26.73;31.82;101239.78;6114515;17;20013;-71
2022/05/10 11:45:24;;;;;;;5.90;5.60;;;;;;;27.20;31.47;101244.31;6069940;23;20034;-73
2022/05/10 11:48:03;;;;;;;5.95;5.65;;;;;;;27.68;31.75;101246.06;6074725;23;20022;-71
2022/05/10 11:53:41;;;;;;;6.72;6.43;;;;;;;26.91;30.97;101195.63;6041033;23;20018;-73
2022/05/10 11:56:07;;;;;;;8.15;7.75;;;;;;;27.64;31.63;101203.31;6065556;23;20279;-72
2022/05/10 11:58:35;;;;;;;5.85;5.55;;;;;;;26.75;31.33;101043.88;6076106;23;20010;-72
2022/05/10 12:01:04;;;;;;;6.53;6.13;;;;;;;28.14;30.61;101217.22;6042619;23;20050;-72
2022/05/10 12:03:41;;;;;;;6.07;5.78;;;;;;;27.15;31.48;101202.75;6075995;23;20022;-71
2022/05/10 12:06:23;;;;;;;7.03;6.65;;;;;;;27.81;31.38;101209.38;6040916;23;20091;-72